sensor_id;sensor_type;location;lat;lon;timestamp;pressure;altitude;pressure_sealevel;temperature;humidity
57885;BME280;43703;51.060;-0.086;2024-03-29T00:00:23;97069.87;;;8.58;98.59
57885;BME280;43703;51.060;-0.086;2024-03-29T00:02:49;97078.19;;;9.10;96.39
57885;BME280;43703;51.060;-0.086;2024-03-29T00:05:14;97071.24;;;9.41;97.70
57885;BME280;43703;51.060;-0.086;2024-03-29T00:07:40;97070.51;;;9.19;95.76
57885;BME280;43703;51.060;-0.086;2024-03-29T00:10:07;97066.19;;;9.34;93.82
57885;BME280;43703;51.060;-0.086;2024-03-29T00:12:31;97065.91;;;9.45;94.43
57885;BME280;43703;51.060;-0.086;2024-03-29T00:14:57;97062.50;;;9.41;95.91
57885;BME280;43703;51.060;-0.086;2024-03-29T00:17:23;97058.69;;;9.17;95.28
57885;BME280;43703;51.060;-0.086;2024-03-29T00:19:49;97060.22;;;8.87;98.51
57885;BME280;43703;51.060;-0.086;2024-03-29T00:22:15;97057.68;;;9.15;99.07
57885;BME280;43703;51.060;-0.086;2024-03-29T00:24:40;97055.01;;;8.73;99.77
57885;BME280;43703;51.060;-0.086;2024-03-29T00:27:05;97060.98;;;9.07;98.48
57885;BME280;43703;51.060;-0.086;2024-03-29T00:29:32;97056.69;;;9.29;99.64
57885;BME280;43703;51.060;-0.086;2024-03-29T00:31:57;97050.19;;;9.26;97.11
57885;BME280;43703;51.060;-0.086;2024-03-29T00:34:22;97050.43;;;9.35;98.22
57885;BME280;43703;51.060;-0.086;2024-03-29T00:36:49;97046.31;;;9.11;97.18
57885;BME280;43703;51.060;-0.086;2024-03-29T00:39:14;97044.96;;;9.34;100.00
57885;BME280;43703;51.060;-0.086;2024-03-29T00:41:39;97048.50;;;9.17;99.94
57885;BME280;43703;51.060;-0.086;2024-03-29T00:44:04;97046.53;;;9.32;99.00
57885;BME280;43703;51.060;-0.086;2024-03-29T00:46:31;97040.85;;;8.94;100.00
57885;BME280;43703;51.060;-0.086;2024-03-29T00:48:54;97037.03;;;8.70;100.00
57885;BME280;43703;51.060;-0.086;2024-03-29T00:51:20;97033.90;;;9.54;100.00
57885;BME280;43703;51.060;-0.086;2024-03-29T00:53:46;97032.22;;;9.57;100.00
57885;BME280;43703;51.060;-0.086;2024-03-29T00:56:12;97045.44;;;9.85;100.00
57885;BME280;43703;51.060;-0.086;2024-03-29T00:58:38;97048.60;;;9.59;100.00
57885;BME280;43703;51.060;-0.086;2024-03-29T01:01:04;97053.28;;;9.55;100.00
57885;BME280;43703;51.060;-0.086;2024-03-29T01:03:31;97044.15;;;9.64;100.00
57885;BME280;43703;51.060;-0.086;2024-03-29T01:05:55;97046.57;;;9.72;100.00
57885;BME280;43703;51.060;-0.086;2024-03-29T01:08:21;97051.40;;;9.61;100.00
57885;BME280;43703;51.060;-0.086;2024-03-29T01:10:47;97055.29;;;9.46;100.00
57885;BME280;43703;51.060;-0.086;2024-03-29T01:13:13;97049.85;;;9.37;100.00
57885;BME280;43703;51.060;-0.086;2024-03-29T01:15:39;97055.12;;;9.62;100.00
57885;BME280;43703;51.060;-0.086;2024-03-29T01:18:04;97063.88;;;9.36;100.00
57885;BME280;43703;51.060;-0.086;2024-03-29T01:20:30;97065.21;;;9.57;100.00
57885;BME280;43703;51.060;-0.086;2024-03-29T01:22:56;97081.04;;;8.92;100.00
57885;BME280;43703;51.060;-0.086;2024-03-29T01:25:22;97088.52;;;8.79;100.00
57885;BME280;43703;51.060;-0.086;2024-03-29T01:27:47;97079.54;;;8.70;100.00
57885;BME280;43703;51.060;-0.086;2024-03-29T01:30:13;97081.84;;;8.07;100.00
57885;BME280;43703;51.060;-0.086;2024-03-29T01:32:39;97078.16;;;8.65;100.00
57885;BME280;43703;51.060;-0.086;2024-03-29T01:35:05;97082.31;;;8.44;100.00
57885;BME280;43703;51.060;-0.086;2024-03-29T01:37:31;97090.00;;;8.85;100.00
57885;BME280;43703;51.060;-0.086;2024-03-29T01:39:57;97096.19;;;8.69;100.00
57885;BME280;43703;51.060;-0.086;2024-03-29T01:42:22;97097.52;;;8.64;100.00
57885;BME280;43703;51.060;-0.086;2024-03-29T01:44:48;97098.53;;;8.73;100.00
57885;BME280;43703;51.060;-0.086;2024-03-29T01:47:15;97106.69;;;8.47;100.00
57885;BME280;43703;51.060;-0.086;2024-03-29T01:49:40;97109.76;;;9.01;100.00
57885;BME280;43703;51.060;-0.086;2024-03-29T01:52:06;97109.43;;;8.15;100.00
57885;BME280;43703;51.060;-0.086;2024-03-29T01:54:32;97104.58;;;8.71;100.00
57885;BME280;43703;51.060;-0.086;2024-03-29T01:56:58;97101.11;;;8.18;100.00
57885;BME280;43703;51.060;-0.086;2024-03-29T01:59:24;97104.38;;;8.49;100.00
57885;BME280;43703;51.060;-0.086;2024-03-29T02:01:49;97098.28;;;8.17;100.00
57885;BME280;43703;51.060;-0.086;2024-03-29T02:04:14;97099.23;;;8.10;100.00
57885;BME280;43703;51.060;-0.086;2024-03-29T02:06:40;97099.16;;;8.51;100.00
57885;BME280;43703;51.060;-0.086;2024-03-29T02:09:06;97095.89;;;8.37;100.00
57885;BME280;43703;51.060;-0.086;2024-03-29T02:11:33;97096.71;;;8.92;100.00
57885;BME280;43703;51.060;-0.086;2024-03-29T02:13:57;97099.01;;;8.19;100.00
57885;BME280;43703;51.060;-0.086;2024-03-29T02:16:22;97102.09;;;8.88;100.00
57885;BME280;43703;51.060;-0.086;2024-03-29T02:18:48;97100.35;;;8.36;100.00
57885;BME280;43703;51.060;-0.086;2024-03-29T02:21:14;97103.16;;;8.75;100.00
57885;BME280;43703;51.060;-0.086;2024-03-29T02:23:44;97105.78;;;9.09;100.00
57885;BME280;43703;51.060;-0.086;2024-03-29T02:26:04;97104.81;;;8.78;100.00
57885;BME280;43703;51.060;-0.086;2024-03-29T02:28:31;97105.87;;;8.78;100.00
57885;BME280;43703;51.060;-0.086;2024-03-29T02:30:56;97107.17;;;8.96;100.00
57885;BME280;43703;51.060;-0.086;2024-03-29T02:33:22;97105.76;;;8.84;100.00
57885;BME280;43703;51.060;-0.086;2024-03-29T02:35:48;97103.33;;;9.28;100.00
57885;BME280;43703;51.060;-0.086;2024-03-29T02:38:14;97103.17;;;9.55;100.00
57885;BME280;43703;51.060;-0.086;2024-03-29T02:40:40;97106.57;;;8.90;99.53
57885;BME280;43703;51.060;-0.086;2024-03-29T02:43:05;97104.60;;;9.37;99.26
57885;BME280;43703;51.060;-0.086;2024-03-29T02:45:32;97112.88;;;9.07;100.00
57885;BME280;43703;51.060;-0.086;2024-03-29T02:47:57;97108.64;;;9.16;100.00
57885;BME280;43703;51.060;-0.086;2024-03-29T02:50:23;97111.39;;;9.37;100.00
57885;BME280;43703;51.060;-0.086;2024-03-29T02:52:49;97106.86;;;9.51;100.00
57885;BME280;43703;51.060;-0.086;2024-03-29T02:55:15;97113.72;;;9.11;100.00
57885;BME280;43703;51.060;-0.086;2024-03-29T02:57:40;97119.73;;;9.30;99.16
57885;BME280;43703;51.060;-0.086;2024-03-29T03:00:07;97112.20;;;9.07;99.72
57885;BME280;43703;51.060;-0.086;2024-03-29T03:02:32;97122.75;;;9.17;100.00
57885;BME280;43703;51.060;-0.086;2024-03-29T03:04:58;97112.91;;;9.07;100.00
57885;BME280;43703;51.060;-0.086;2024-03-29T03:07:24;97121.14;;;8.71;100.00
57885;BME280;43703;51.060;-0.086;2024-03-29T03:09:49;97120.45;;;8.82;100.00
57885;BME280;43703;51.060;-0.086;2024-03-29T03:12:15;97123.06;;;8.71;100.00
57885;BME280;43703;51.060;-0.086;2024-03-29T03:14:41;97129.88;;;8.93;100.00
57885;BME280;43703;51.060;-0.086;2024-03-29T03:17:07;97129.13;;;8.90;100.00
57885;BME280;43703;51.060;-0.086;2024-03-29T03:19:32;97132.76;;;9.39;100.00
57885;BME280;43703;51.060;-0.086;2024-03-29T03:21:58;97135.59;;;9.06;100.00
57885;BME280;43703;51.060;-0.086;2024-03-29T03:24:24;97136.33;;;9.16;100.00
57885;BME280;43703;51.060;-0.086;2024-03-29T03:26:49;97141.31;;;8.90;100.00
57885;BME280;43703;51.060;-0.086;2024-03-29T03:29:15;97141.05;;;8.95;100.00
57885;BME280;43703;51.060;-0.086;2024-03-29T03:31:41;97147.12;;;8.95;100.00
57885;BME280;43703;51.060;-0.086;2024-03-29T03:34:07;97147.86;;;9.14;99.97
57885;BME280;43703;51.060;-0.086;2024-03-29T03:36:32;97141.16;;;9.22;97.47
57885;BME280;43703;51.060;-0.086;2024-03-29T03:38:58;97161.09;;;9.31;96.56
57885;BME280;43703;51.060;-0.086;2024-03-29T03:41:26;97154.27;;;9.32;97.27
57885;BME280;43703;51.060;-0.086;2024-03-29T03:43:50;97153.09;;;9.46;98.58
57885;BME280;43703;51.060;-0.086;2024-03-29T03:46:16;97159.85;;;9.14;97.04
57885;BME280;43703;51.060;-0.086;2024-03-29T03:48:41;97171.37;;;9.08;97.76
57885;BME280;43703;51.060;-0.086;2024-03-29T03:51:08;97155.18;;;9.15;99.76
57885;BME280;43703;51.060;-0.086;2024-03-29T03:53:32;97163.03;;;9.14;95.66
57885;BME280;43703;51.060;-0.086;2024-03-29T03:55:58;97161.38;;;9.00;100.00
57885;BME280;43703;51.060;-0.086;2024-03-29T03:58:23;97164.44;;;9.38;100.00
57885;BME280;43703;51.060;-0.086;2024-03-29T04:00:48;97156.09;;;8.92;100.00
57885;BME280;43703;51.060;-0.086;2024-03-29T04:03:13;97162.33;;;8.97;100.00
57885;BME280;43703;51.060;-0.086;2024-03-29T04:05:39;97163.02;;;9.12;98.95
57885;BME280;43703;51.060;-0.086;2024-03-29T04:08:06;97157.66;;;8.94;100.00
57885;BME280;43703;51.060;-0.086;2024-03-29T04:10:31;97157.15;;;9.02;99.20
57885;BME280;43703;51.060;-0.086;2024-03-29T04:12:57;97158.14;;;9.33;96.50
57885;BME280;43703;51.060;-0.086;2024-03-29T04:15:22;97159.66;;;9.16;97.50
57885;BME280;43703;51.060;-0.086;2024-03-29T04:17:48;97166.53;;;8.61;99.25
57885;BME280;43703;51.060;-0.086;2024-03-29T04:20:13;97164.55;;;8.65;99.23
57885;BME280;43703;51.060;-0.086;2024-03-29T04:22:39;97165.91;;;8.67;96.19
57885;BME280;43703;51.060;-0.086;2024-03-29T04:25:04;97171.99;;;8.95;97.68
57885;BME280;43703;51.060;-0.086;2024-03-29T04:27:30;97173.01;;;9.04;93.66
57885;BME280;43703;51.060;-0.086;2024-03-29T04:29:58;97173.99;;;9.48;91.99
57885;BME280;43703;51.060;-0.086;2024-03-29T04:32:22;97173.96;;;9.03;94.32
57885;BME280;43703;51.060;-0.086;2024-03-29T04:34:47;97174.26;;;9.20;94.57
57885;BME280;43703;51.060;-0.086;2024-03-29T04:37:12;97177.73;;;9.07;94.68
57885;BME280;43703;51.060;-0.086;2024-03-29T04:39:38;97173.82;;;9.58;91.87
57885;BME280;43703;51.060;-0.086;2024-03-29T04:42:04;97164.59;;;9.04;95.83
57885;BME280;43703;51.060;-0.086;2024-03-29T04:44:30;97164.26;;;8.98;94.62
57885;BME280;43703;51.060;-0.086;2024-03-29T04:46:55;97159.99;;;9.22;93.05
57885;BME280;43703;51.060;-0.086;2024-03-29T04:49:23;97161.87;;;9.37;94.26
57885;BME280;43703;51.060;-0.086;2024-03-29T04:51:48;97154.85;;;8.92;97.32
57885;BME280;43703;51.060;-0.086;2024-03-29T04:54:13;97158.96;;;9.06;94.82
57885;BME280;43703;51.060;-0.086;2024-03-29T04:56:39;97165.21;;;9.06;94.68
57885;BME280;43703;51.060;-0.086;2024-03-29T04:59:06;97172.38;;;9.01;92.44
57885;BME280;43703;51.060;-0.086;2024-03-29T05:01:31;97170.92;;;9.12;92.01
57885;BME280;43703;51.060;-0.086;2024-03-29T05:03:57;97172.69;;;9.12;93.71
57885;BME280;43703;51.060;-0.086;2024-03-29T05:06:22;97170.41;;;8.75;94.33
57885;BME280;43703;51.060;-0.086;2024-03-29T05:08:47;97177.85;;;8.56;95.66
57885;BME280;43703;51.060;-0.086;2024-03-29T05:11:13;97180.02;;;8.86;94.17
57885;BME280;43703;51.060;-0.086;2024-03-29T05:13:39;97180.91;;;8.92;97.55
57885;BME280;43703;51.060;-0.086;2024-03-29T05:16:04;97175.68;;;8.91;94.01
57885;BME280;43703;51.060;-0.086;2024-03-29T05:18:30;97177.66;;;8.69;93.64
57885;BME280;43703;51.060;-0.086;2024-03-29T05:20:55;97178.01;;;9.11;93.35
57885;BME280;43703;51.060;-0.086;2024-03-29T05:23:21;97182.03;;;8.74;92.31
57885;BME280;43703;51.060;-0.086;2024-03-29T05:25:47;97183.68;;;9.30;97.38
57885;BME280;43703;51.060;-0.086;2024-03-29T05:28:13;97181.76;;;9.11;93.42
57885;BME280;43703;51.060;-0.086;2024-03-29T05:30:39;97180.52;;;8.53;94.74
57885;BME280;43703;51.060;-0.086;2024-03-29T05:33:05;97181.65;;;8.95;95.25
57885;BME280;43703;51.060;-0.086;2024-03-29T05:35:31;97190.25;;;8.88;93.97
57885;BME280;43703;51.060;-0.086;2024-03-29T05:37:56;97184.43;;;8.95;92.45
57885;BME280;43703;51.060;-0.086;2024-03-29T05:40:22;97192.05;;;8.42;95.47
57885;BME280;43703;51.060;-0.086;2024-03-29T05:42:48;97193.76;;;9.21;93.44
57885;BME280;43703;51.060;-0.086;2024-03-29T05:45:23;97200.33;;;8.63;93.32
57885;BME280;43703;51.060;-0.086;2024-03-29T05:47:39;97196.55;;;8.83;92.29
57885;BME280;43703;51.060;-0.086;2024-03-29T05:50:05;97197.82;;;9.20;92.25
57885;BME280;43703;51.060;-0.086;2024-03-29T05:52:31;97195.12;;;9.02;90.63
57885;BME280;43703;51.060;-0.086;2024-03-29T05:54:56;97195.49;;;9.64;90.47
57885;BME280;43703;51.060;-0.086;2024-03-29T05:57:21;97196.00;;;9.06;90.54
57885;BME280;43703;51.060;-0.086;2024-03-29T05:59:47;97201.93;;;8.85;92.08
57885;BME280;43703;51.060;-0.086;2024-03-29T06:02:13;97204.71;;;9.05;92.77
57885;BME280;43703;51.060;-0.086;2024-03-29T06:04:38;97207.24;;;8.66;92.10
57885;BME280;43703;51.060;-0.086;2024-03-29T06:07:04;97212.94;;;8.69;91.48
57885;BME280;43703;51.060;-0.086;2024-03-29T06:09:30;97216.42;;;9.35;93.76
57885;BME280;43703;51.060;-0.086;2024-03-29T06:11:55;97210.76;;;9.11;93.65
57885;BME280;43703;51.060;-0.086;2024-03-29T06:14:20;97215.64;;;9.15;92.44
57885;BME280;43703;51.060;-0.086;2024-03-29T06:16:48;97207.83;;;9.12;89.35
57885;BME280;43703;51.060;-0.086;2024-03-29T06:19:12;97213.36;;;9.27;89.54
57885;BME280;43703;51.060;-0.086;2024-03-29T06:21:38;97211.14;;;9.16;90.14
57885;BME280;43703;51.060;-0.086;2024-03-29T06:24:04;97221.69;;;9.02;92.96
57885;BME280;43703;51.060;-0.086;2024-03-29T06:26:29;97223.38;;;8.72;95.13
57885;BME280;43703;51.060;-0.086;2024-03-29T06:28:55;97221.80;;;9.06;95.24
57885;BME280;43703;51.060;-0.086;2024-03-29T06:31:20;97226.14;;;8.99;92.43
57885;BME280;43703;51.060;-0.086;2024-03-29T06:33:46;97227.95;;;8.73;94.44
57885;BME280;43703;51.060;-0.086;2024-03-29T06:36:12;97227.70;;;9.19;94.38
57885;BME280;43703;51.060;-0.086;2024-03-29T06:38:38;97228.60;;;8.97;92.42
57885;BME280;43703;51.060;-0.086;2024-03-29T06:41:04;97234.34;;;9.38;93.55
57885;BME280;43703;51.060;-0.086;2024-03-29T06:43:30;97234.01;;;9.35;91.97
57885;BME280;43703;51.060;-0.086;2024-03-29T06:45:55;97234.89;;;9.64;89.86
57885;BME280;43703;51.060;-0.086;2024-03-29T06:48:21;97239.83;;;9.33;91.40
57885;BME280;43703;51.060;-0.086;2024-03-29T06:50:47;97237.96;;;9.74;90.96
57885;BME280;43703;51.060;-0.086;2024-03-29T06:53:13;97238.07;;;9.85;91.74
57885;BME280;43703;51.060;-0.086;2024-03-29T06:55:39;97226.77;;;10.33;91.10
57885;BME280;43703;51.060;-0.086;2024-03-29T06:58:05;97242.25;;;10.28;95.46
57885;BME280;43703;51.060;-0.086;2024-03-29T07:00:30;97238.56;;;9.98;94.50
57885;BME280;43703;51.060;-0.086;2024-03-29T07:02:56;97237.18;;;10.18;90.53
57885;BME280;43703;51.060;-0.086;2024-03-29T07:05:21;97244.04;;;9.91;91.74
57885;BME280;43703;51.060;-0.086;2024-03-29T07:07:47;97243.29;;;10.24;93.53
57885;BME280;43703;51.060;-0.086;2024-03-29T07:10:13;97247.35;;;10.61;87.81
57885;BME280;43703;51.060;-0.086;2024-03-29T07:12:39;97235.98;;;10.10;87.84
57885;BME280;43703;51.060;-0.086;2024-03-29T07:15:06;97243.05;;;10.37;90.13
57885;BME280;43703;51.060;-0.086;2024-03-29T07:17:30;97240.08;;;9.85;87.13
57885;BME280;43703;51.060;-0.086;2024-03-29T07:19:56;97236.06;;;10.82;91.03
57885;BME280;43703;51.060;-0.086;2024-03-29T07:22:22;97239.53;;;11.16;85.72
57885;BME280;43703;51.060;-0.086;2024-03-29T07:24:48;97245.98;;;11.20;86.35
57885;BME280;43703;51.060;-0.086;2024-03-29T07:27:14;97248.96;;;11.50;88.94
57885;BME280;43703;51.060;-0.086;2024-03-29T07:29:40;97248.38;;;11.46;87.21
57885;BME280;43703;51.060;-0.086;2024-03-29T07:32:06;97241.53;;;11.20;89.29
57885;BME280;43703;51.060;-0.086;2024-03-29T07:34:32;97241.75;;;11.07;85.39
57885;BME280;43703;51.060;-0.086;2024-03-29T07:36:57;97246.74;;;11.26;82.45
57885;BME280;43703;51.060;-0.086;2024-03-29T07:39:23;97249.93;;;11.38;81.78
57885;BME280;43703;51.060;-0.086;2024-03-29T07:41:49;97253.53;;;11.31;81.41
57885;BME280;43703;51.060;-0.086;2024-03-29T07:44:15;97256.81;;;11.04;81.85
57885;BME280;43703;51.060;-0.086;2024-03-29T07:46:41;97254.58;;;10.96;80.37
57885;BME280;43703;51.060;-0.086;2024-03-29T07:49:06;97265.43;;;10.87;81.76
57885;BME280;43703;51.060;-0.086;2024-03-29T07:51:32;97268.31;;;10.96;86.41
57885;BME280;43703;51.060;-0.086;2024-03-29T07:53:58;97264.81;;;10.47;83.63
57885;BME280;43703;51.060;-0.086;2024-03-29T07:56:24;97271.65;;;10.86;87.73
57885;BME280;43703;51.060;-0.086;2024-03-29T07:58:51;97273.36;;;10.65;86.21
57885;BME280;43703;51.060;-0.086;2024-03-29T08:01:18;97276.54;;;10.38;88.77
57885;BME280;43703;51.060;-0.086;2024-03-29T08:03:41;97279.16;;;10.61;89.84
57885;BME280;43703;51.060;-0.086;2024-03-29T08:06:07;97278.04;;;10.28;87.00
57885;BME280;43703;51.060;-0.086;2024-03-29T08:08:33;97293.05;;;10.16;92.11
57885;BME280;43703;51.060;-0.086;2024-03-29T08:10:58;97285.30;;;10.36;88.47
57885;BME280;43703;51.060;-0.086;2024-03-29T08:13:24;97283.43;;;10.64;93.43
57885;BME280;43703;51.060;-0.086;2024-03-29T08:15:49;97285.27;;;10.74;92.03
57885;BME280;43703;51.060;-0.086;2024-03-29T08:18:15;97290.07;;;10.65;87.41
57885;BME280;43703;51.060;-0.086;2024-03-29T08:20:42;97286.57;;;10.27;88.97
57885;BME280;43703;51.060;-0.086;2024-03-29T08:23:07;97287.86;;;10.57;89.04
57885;BME280;43703;51.060;-0.086;2024-03-29T08:25:33;97286.01;;;10.42;93.35
57885;BME280;43703;51.060;-0.086;2024-03-29T08:27:59;97289.06;;;10.43;92.58
57885;BME280;43703;51.060;-0.086;2024-03-29T08:30:25;97293.68;;;10.97;90.01
57885;BME280;43703;51.060;-0.086;2024-03-29T08:32:50;97302.77;;;10.67;92.12
57885;BME280;43703;51.060;-0.086;2024-03-29T08:35:16;97299.22;;;9.80;94.96
57885;BME280;43703;51.060;-0.086;2024-03-29T08:37:42;97304.98;;;10.44;96.55
57885;BME280;43703;51.060;-0.086;2024-03-29T08:40:09;97303.01;;;10.51;95.30
57885;BME280;43703;51.060;-0.086;2024-03-29T08:42:34;97305.94;;;10.19;97.06
57885;BME280;43703;51.060;-0.086;2024-03-29T08:45:00;97301.20;;;10.09;100.00
57885;BME280;43703;51.060;-0.086;2024-03-29T08:47:25;97298.72;;;9.38;100.00
57885;BME280;43703;51.060;-0.086;2024-03-29T08:49:51;97301.78;;;9.67;100.00
57885;BME280;43703;51.060;-0.086;2024-03-29T08:52:17;97302.80;;;9.95;100.00
57885;BME280;43703;51.060;-0.086;2024-03-29T08:54:43;97311.27;;;9.64;100.00
57885;BME280;43703;51.060;-0.086;2024-03-29T08:57:09;97306.31;;;9.63;100.00
57885;BME280;43703;51.060;-0.086;2024-03-29T08:59:35;97308.34;;;9.50;100.00
57885;BME280;43703;51.060;-0.086;2024-03-29T09:02:04;97322.80;;;9.76;100.00
57885;BME280;43703;51.060;-0.086;2024-03-29T09:04:26;97312.66;;;9.65;100.00
57885;BME280;43703;51.060;-0.086;2024-03-29T09:06:52;97307.60;;;9.38;100.00
57885;BME280;43703;51.060;-0.086;2024-03-29T09:09:18;97307.73;;;9.29;100.00
57885;BME280;43703;51.060;-0.086;2024-03-29T09:11:44;97308.50;;;9.58;100.00
57885;BME280;43703;51.060;-0.086;2024-03-29T09:14:10;97325.20;;;10.00;100.00
57885;BME280;43703;51.060;-0.086;2024-03-29T09:16:36;97327.81;;;10.08;100.00
57885;BME280;43703;51.060;-0.086;2024-03-29T09:19:01;97327.17;;;10.25;100.00
57885;BME280;43703;51.060;-0.086;2024-03-29T09:21:27;97326.96;;;10.44;100.00
57885;BME280;43703;51.060;-0.086;2024-03-29T09:23:53;97336.94;;;10.24;100.00
57885;BME280;43703;51.060;-0.086;2024-03-29T09:26:19;97339.10;;;10.32;100.00
57885;BME280;43703;51.060;-0.086;2024-03-29T09:28:45;97338.66;;;10.16;100.00
57885;BME280;43703;51.060;-0.086;2024-03-29T09:31:10;97341.03;;;10.28;100.00
57885;BME280;43703;51.060;-0.086;2024-03-29T09:33:36;97338.57;;;10.28;100.00
57885;BME280;43703;51.060;-0.086;2024-03-29T09:36:02;97345.48;;;10.17;100.00
57885;BME280;43703;51.060;-0.086;2024-03-29T09:38:28;97348.34;;;9.71;100.00
57885;BME280;43703;51.060;-0.086;2024-03-29T09:41:10;97354.60;;;9.65;100.00
57885;BME280;43703;51.060;-0.086;2024-03-29T09:43:20;97357.06;;;9.86;100.00
57885;BME280;43703;51.060;-0.086;2024-03-29T09:45:45;97352.50;;;9.35;100.00
57885;BME280;43703;51.060;-0.086;2024-03-29T09:48:12;97360.62;;;9.77;100.00
57885;BME280;43703;51.060;-0.086;2024-03-29T09:50:37;97365.35;;;9.77;100.00
57885;BME280;43703;51.060;-0.086;2024-03-29T09:53:04;97364.80;;;9.80;100.00
57885;BME280;43703;51.060;-0.086;2024-03-29T09:55:29;97365.04;;;10.22;100.00
57885;BME280;43703;51.060;-0.086;2024-03-29T09:57:55;97374.94;;;9.98;100.00
57885;BME280;43703;51.060;-0.086;2024-03-29T10:00:20;97370.34;;;9.76;100.00
57885;BME280;43703;51.060;-0.086;2024-03-29T10:02:49;97374.96;;;9.68;100.00
57885;BME280;43703;51.060;-0.086;2024-03-29T10:05:12;97379.77;;;10.18;100.00
57885;BME280;43703;51.060;-0.086;2024-03-29T10:07:39;97381.35;;;9.67;100.00
57885;BME280;43703;51.060;-0.086;2024-03-29T10:10:04;97381.49;;;10.45;100.00
57885;BME280;43703;51.060;-0.086;2024-03-29T10:12:29;97375.76;;;10.04;100.00
57885;BME280;43703;51.060;-0.086;2024-03-29T10:14:56;97376.61;;;9.93;100.00
57885;BME280;43703;51.060;-0.086;2024-03-29T10:17:21;97377.39;;;9.74;100.00
57885;BME280;43703;51.060;-0.086;2024-03-29T10:19:48;97375.46;;;9.64;100.00
57885;BME280;43703;51.060;-0.086;2024-03-29T10:22:13;97376.50;;;10.00;100.00
57885;BME280;43703;51.060;-0.086;2024-03-29T10:24:39;97370.55;;;10.11;100.00
57885;BME280;43703;51.060;-0.086;2024-03-29T10:27:05;97365.31;;;10.14;100.00
57885;BME280;43703;51.060;-0.086;2024-03-29T10:29:30;97376.11;;;10.02;100.00
57885;BME280;43703;51.060;-0.086;2024-03-29T10:31:56;97369.87;;;10.41;100.00
57885;BME280;43703;51.060;-0.086;2024-03-29T10:34:21;97374.61;;;10.55;100.00
57885;BME280;43703;51.060;-0.086;2024-03-29T10:36:47;97368.64;;;10.63;100.00
57885;BME280;43703;51.060;-0.086;2024-03-29T10:39:13;97378.33;;;11.20;100.00
57885;BME280;43703;51.060;-0.086;2024-03-29T10:41:41;97374.29;;;11.02;97.87
57885;BME280;43703;51.060;-0.086;2024-03-29T10:44:05;97381.81;;;10.50;97.31
57885;BME280;43703;51.060;-0.086;2024-03-29T10:46:31;97388.11;;;10.63;100.00
57885;BME280;43703;51.060;-0.086;2024-03-29T10:48:56;97393.05;;;10.79;100.00
57885;BME280;43703;51.060;-0.086;2024-03-29T10:51:22;97389.36;;;10.77;100.00
57885;BME280;43703;51.060;-0.086;2024-03-29T10:53:48;97388.16;;;10.85;99.07
57885;BME280;43703;51.060;-0.086;2024-03-29T10:56:15;97391.67;;;11.37;100.00
57885;BME280;43703;51.060;-0.086;2024-03-29T10:58:40;97399.62;;;11.66;96.18
57885;BME280;43703;51.060;-0.086;2024-03-29T11:01:05;97395.66;;;12.01;92.32
57885;BME280;43703;51.060;-0.086;2024-03-29T11:03:37;97400.91;;;11.57;90.92
57885;BME280;43703;51.060;-0.086;2024-03-29T11:06:02;97402.88;;;11.90;94.41
57885;BME280;43703;51.060;-0.086;2024-03-29T11:08:23;97401.33;;;11.83;90.58
57885;BME280;43703;51.060;-0.086;2024-03-29T11:10:50;97408.26;;;12.03;94.76
57885;BME280;43703;51.060;-0.086;2024-03-29T11:13:20;97399.25;;;11.82;94.23
57885;BME280;43703;51.060;-0.086;2024-03-29T11:15:41;97411.32;;;11.99;91.35
57885;BME280;43703;51.060;-0.086;2024-03-29T11:18:07;97411.56;;;12.00;91.19
57885;BME280;43703;51.060;-0.086;2024-03-29T11:20:31;97419.46;;;12.43;89.15
57885;BME280;43703;51.060;-0.086;2024-03-29T11:22:57;97415.38;;;12.26;87.43
57885;BME280;43703;51.060;-0.086;2024-03-29T11:25:23;97413.71;;;11.78;89.92
57885;BME280;43703;51.060;-0.086;2024-03-29T11:27:48;97417.89;;;12.11;93.38
57885;BME280;43703;51.060;-0.086;2024-03-29T11:30:17;97413.88;;;12.25;91.34
57885;BME280;43703;51.060;-0.086;2024-03-29T11:32:40;97411.94;;;11.84;90.41
57885;BME280;43703;51.060;-0.086;2024-03-29T11:35:14;97416.93;;;12.34;92.95
57885;BME280;43703;51.060;-0.086;2024-03-29T11:37:37;97414.74;;;12.85;87.90
57885;BME280;43703;51.060;-0.086;2024-03-29T11:39:59;97412.56;;;12.61;86.05
57885;BME280;43703;51.060;-0.086;2024-03-29T11:44:49;97418.89;;;11.97;83.87
57885;BME280;43703;51.060;-0.086;2024-03-29T11:47:16;97421.27;;;11.72;86.70
57885;BME280;43703;51.060;-0.086;2024-03-29T11:49:41;97416.27;;;11.93;86.21
57885;BME280;43703;51.060;-0.086;2024-03-29T11:52:06;97415.24;;;11.99;85.46
57885;BME280;43703;51.060;-0.086;2024-03-29T11:54:37;97420.37;;;12.26;84.81
57885;BME280;43703;51.060;-0.086;2024-03-29T11:56:58;97421.65;;;12.54;85.90
57885;BME280;43703;51.060;-0.086;2024-03-29T11:59:24;97420.93;;;13.08;91.30
57885;BME280;43703;51.060;-0.086;2024-03-29T12:01:49;97418.44;;;13.30;78.55
57885;BME280;43703;51.060;-0.086;2024-03-29T12:04:20;97419.99;;;13.31;78.56
57885;BME280;43703;51.060;-0.086;2024-03-29T12:06:41;97418.52;;;13.66;76.16
57885;BME280;43703;51.060;-0.086;2024-03-29T12:09:08;97418.16;;;13.13;79.48
57885;BME280;43703;51.060;-0.086;2024-03-29T12:11:33;97427.24;;;12.97;80.76
57885;BME280;43703;51.060;-0.086;2024-03-29T12:13:58;97427.55;;;12.65;77.57
57885;BME280;43703;51.060;-0.086;2024-03-29T12:16:24;97431.61;;;12.58;80.14
57885;BME280;43703;51.060;-0.086;2024-03-29T12:18:50;97429.36;;;12.56;81.61
57885;BME280;43703;51.060;-0.086;2024-03-29T12:21:16;97432.60;;;12.21;83.48
57885;BME280;43703;51.060;-0.086;2024-03-29T12:23:47;97438.50;;;12.37;85.86
57885;BME280;43703;51.060;-0.086;2024-03-29T12:26:07;97434.97;;;12.33;82.56
57885;BME280;43703;51.060;-0.086;2024-03-29T12:28:33;97446.24;;;12.33;81.32
57885;BME280;43703;51.060;-0.086;2024-03-29T12:30:59;97445.25;;;11.74;81.47
57885;BME280;43703;51.060;-0.086;2024-03-29T12:33:25;97454.13;;;12.43;82.26
57885;BME280;43703;51.060;-0.086;2024-03-29T12:35:52;97455.06;;;12.42;82.19
57885;BME280;43703;51.060;-0.086;2024-03-29T12:38:17;97452.97;;;11.97;82.15
57885;BME280;43703;51.060;-0.086;2024-03-29T12:40:44;97454.08;;;12.22;81.61
57885;BME280;43703;51.060;-0.086;2024-03-29T12:43:08;97460.46;;;12.62;83.47
57885;BME280;43703;51.060;-0.086;2024-03-29T12:45:34;97458.19;;;12.27;83.60